createdAt,value
2022-12-05T00:01:31.821Z,20.87
2022-12-05T00:04:02.516Z,20.13
2022-12-05T00:06:31.335Z,21.03
2022-12-05T00:08:59.313Z,21.43
2022-12-05T00:11:30.036Z,21.60
2022-12-05T00:13:59.668Z,22.60
2022-12-05T00:16:30.336Z,21.63
2022-12-05T00:19:00.925Z,20.00
2022-12-05T00:21:31.243Z,20.60
2022-12-05T00:24:00.322Z,21.73
2022-12-05T00:26:28.264Z,23.13
2022-12-05T00:28:55.227Z,21.80
2022-12-05T00:31:24.567Z,25.03
2022-12-05T00:33:52.527Z,20.90
2022-12-05T00:36:23.450Z,20.53
2022-12-05T00:38:50.735Z,22.10
2022-12-05T00:41:24.152Z,21.57
2022-12-05T00:43:52.008Z,19.83
2022-12-05T00:46:23.777Z,20.73
2022-12-05T00:48:53.128Z,19.70
2022-12-05T00:51:29.778Z,17.90
2022-12-05T00:54:02.868Z,18.37
2022-12-05T00:56:32.091Z,20.83
2022-12-05T00:59:00.506Z,20.47
2022-12-05T01:01:39.301Z,20.20
2022-12-05T01:04:15.757Z,21.43
2022-12-05T01:06:43.853Z,21.53
2022-12-05T01:09:15.056Z,17.00
2022-12-05T01:11:42.855Z,19.17
2022-12-05T01:14:12.522Z,20.60
2022-12-05T01:16:41.790Z,24.53
2022-12-05T01:19:23.854Z,20.97
2022-12-05T01:21:51.223Z,17.70
2022-12-05T01:24:24.181Z,18.37
2022-12-05T01:26:51.549Z,18.43
2022-12-05T01:29:21.646Z,18.43
2022-12-05T01:31:49.049Z,19.80
2022-12-05T01:34:18.180Z,20.50
2022-12-05T01:36:45.944Z,17.90
2022-12-05T01:39:13.885Z,16.63
2022-12-05T01:41:45.403Z,19.87
2022-12-05T01:44:12.534Z,18.80
2022-12-05T01:46:45.952Z,23.50
2022-12-05T01:49:34.077Z,20.53
2022-12-05T01:52:15.134Z,19.97
2022-12-05T01:54:44.033Z,18.80
2022-12-05T01:57:13.213Z,20.67
2022-12-05T01:59:49.742Z,22.13
2022-12-05T02:02:16.908Z,19.23
2022-12-05T02:05:05.832Z,19.97
2022-12-05T02:07:34.339Z,20.13
2022-12-05T02:10:01.385Z,18.67
2022-12-05T02:12:28.551Z,20.30
2022-12-05T02:15:38.213Z,18.63
2022-12-05T02:18:56.164Z,25.40
2022-12-05T02:21:43.993Z,19.63
2022-12-05T02:24:13.499Z,18.60
2022-12-05T02:27:23.307Z,18.60
2022-12-05T02:30:10.118Z,20.27
2022-12-05T02:33:05.197Z,20.30
2022-12-05T02:35:42.411Z,19.67
2022-12-05T02:38:22.364Z,20.37
2022-12-05T02:41:17.165Z,19.53
2022-12-05T02:44:09.960Z,23.83
2022-12-05T02:46:40.513Z,18.57
2022-12-05T02:49:23.868Z,19.90
2022-12-05T02:51:56.206Z,20.27
2022-12-05T02:54:37.662Z,19.83
2022-12-05T02:57:05.787Z,21.50
2022-12-05T02:59:32.736Z,20.60
2022-12-05T03:01:59.787Z,17.10
2022-12-05T03:04:28.412Z,19.03
2022-12-05T03:07:12.384Z,15.87
2022-12-05T03:10:00.234Z,15.70
2022-12-05T03:12:32.669Z,15.70
2022-12-05T03:15:28.131Z,16.23
2022-12-05T03:18:16.735Z,17.90
2022-12-05T03:20:54.631Z,14.93
2022-12-05T03:23:33.737Z,18.10
2022-12-05T03:26:23.795Z,20.00
2022-12-05T03:29:38.009Z,16.13
2022-12-05T03:32:29.321Z,17.77
2022-12-05T03:35:20.523Z,18.63
2022-12-05T03:38:04.166Z,17.03
2022-12-05T03:40:40.306Z,16.80
2022-12-05T03:43:09.866Z,16.23
2022-12-05T03:46:03.418Z,20.63
2022-12-05T03:48:55.240Z,17.77
2022-12-05T03:51:34.507Z,17.70
2022-12-05T03:54:25.353Z,18.63
2022-12-05T03:57:15.449Z,16.30
2022-12-05T03:59:57.932Z,18.23
2022-12-05T04:02:53.099Z,16.93
2022-12-05T04:05:29.006Z,17.40
2022-12-05T04:08:07.556Z,21.23
2022-12-05T04:10:48.772Z,18.80
2022-12-05T04:13:32.234Z,18.03
2022-12-05T04:16:32.718Z,18.57
2022-12-05T04:19:09.443Z,25.77
2022-12-05T04:21:45.652Z,20.27
2022-12-05T04:24:51.153Z,21.40
2022-12-05T04:27:51.351Z,17.43
2022-12-05T04:30:25.168Z,20.07
2022-12-05T04:33:12.005Z,18.53
2022-12-05T04:36:18.160Z,17.97
2022-12-05T04:38:59.116Z,18.20
2022-12-05T04:41:39.027Z,20.93
2022-12-05T04:44:11.887Z,20.63
2022-12-05T04:46:42.549Z,18.40
2022-12-05T04:49:13.687Z,16.87
2022-12-05T04:51:42.811Z,21.50
2022-12-05T04:54:28.117Z,19.37
2022-12-05T04:57:04.180Z,17.23
2022-12-05T04:59:31.131Z,18.77
2022-12-05T05:02:09.340Z,18.90
2022-12-05T05:04:47.388Z,18.70
2022-12-05T05:07:15.111Z,18.10
2022-12-05T05:09:42.572Z,17.10
2022-12-05T05:12:12.155Z,17.17
2022-12-05T05:14:42.782Z,16.03
2022-12-05T05:17:09.708Z,15.50
2022-12-05T05:19:36.642Z,17.27
2022-12-05T05:22:03.551Z,17.70
2022-12-05T05:24:30.486Z,18.13
2022-12-05T05:26:57.765Z,16.77
2022-12-05T05:29:25.286Z,14.03
2022-12-05T05:31:52.307Z,16.27
2022-12-05T05:34:19.258Z,16.83
2022-12-05T05:36:46.258Z,16.37
2022-12-05T05:39:15.377Z,22.33
2022-12-05T05:41:43.534Z,25.73
2022-12-05T05:44:11.180Z,22.30
2022-12-05T05:46:38.780Z,25.20
2022-12-05T05:49:06.209Z,24.63
2022-12-05T05:51:33.343Z,24.63
2022-12-05T05:54:00.978Z,21.13
2022-12-05T05:56:28.553Z,25.60
2022-12-05T05:59:02.293Z,21.83
2022-12-05T06:01:30.224Z,26.73
2022-12-05T06:03:58.012Z,27.10
2022-12-05T06:06:25.613Z,22.80
2022-12-05T06:08:52.596Z,25.70
2022-12-05T06:11:26.746Z,20.23
2022-12-05T06:14:01.296Z,20.23
2022-12-05T06:16:31.208Z,19.27
2022-12-05T06:18:59.162Z,18.63
2022-12-05T06:21:26.464Z,19.37
2022-12-05T06:23:53.952Z,14.60
2022-12-05T06:26:22.771Z,14.87
2022-12-05T06:28:50.307Z,15.77
2022-12-05T06:31:24.605Z,13.77
2022-12-05T06:33:51.602Z,13.37
2022-12-05T06:36:21.282Z,14.97
2022-12-05T06:38:49.032Z,16.93
2022-12-05T06:41:19.343Z,12.20
2022-12-05T06:43:46.763Z,13.20
2022-12-05T06:46:15.386Z,12.83
2022-12-05T06:48:42.428Z,13.33
2022-12-05T06:51:15.581Z,13.40
2022-12-05T06:53:43.451Z,12.83
2022-12-05T06:56:14.211Z,12.80
2022-12-05T06:58:46.736Z,11.97
2022-12-05T07:01:36.165Z,11.70
2022-12-05T07:04:05.641Z,11.43
2022-12-05T07:06:34.771Z,13.17
2022-12-05T07:09:02.456Z,12.03
2022-12-05T07:11:29.387Z,12.27
2022-12-05T07:13:56.725Z,12.33
2022-12-05T07:16:24.222Z,12.17
2022-12-05T07:18:51.315Z,12.17
2022-12-05T07:21:20.233Z,12.00
2022-12-05T07:23:50.030Z,14.20
2022-12-05T07:26:21.929Z,11.27
2022-12-05T07:28:50.619Z,13.13
2022-12-05T07:31:22.939Z,13.77
2022-12-05T07:33:50.481Z,14.20
2022-12-05T07:36:22.829Z,13.07
2022-12-05T07:38:55.417Z,13.30
2022-12-05T07:41:25.938Z,11.87
2022-12-05T07:43:56.322Z,11.10
2022-12-05T07:46:24.915Z,35.13
2022-12-05T07:48:53.269Z,40.87
2022-12-05T07:51:21.282Z,20.43
2022-12-05T07:53:49.117Z,12.33
2022-12-05T07:56:18.230Z,26.80
2022-12-05T07:58:49.197Z,34.13
2022-12-05T08:01:26.410Z,14.10
2022-12-05T08:03:56.957Z,9.67
2022-12-05T08:06:28.205Z,9.53
2022-12-05T08:08:56.050Z,9.73
2022-12-05T08:11:27.408Z,9.73
2022-12-05T08:13:54.769Z,9.17
2022-12-05T08:16:25.478Z,11.10
2022-12-05T08:19:00.794Z,10.67
2022-12-05T08:21:28.693Z,9.60
2022-12-05T08:23:55.920Z,10.47
2022-12-05T08:26:29.630Z,14.80
2022-12-05T08:29:04.448Z,11.90
2022-12-05T08:31:34.560Z,10.23
2022-12-05T08:34:01.972Z,12.30
2022-12-05T08:36:30.756Z,19.67
2022-12-05T08:39:05.124Z,12.30
2022-12-05T08:41:32.834Z,9.93
2022-12-05T08:44:04.101Z,9.93
2022-12-05T08:46:33.711Z,9.83
2022-12-05T08:49:00.834Z,10.30
2022-12-05T08:51:27.768Z,8.43
2022-12-05T08:53:56.533Z,8.57
2022-12-05T08:56:27.059Z,10.47
2022-12-05T08:59:01.200Z,11.47
2022-12-05T09:01:32.147Z,8.50
2022-12-05T09:04:00.656Z,7.90
2022-12-05T09:06:29.917Z,8.00
2022-12-05T09:09:01.080Z,10.20
2022-12-05T09:11:32.037Z,8.87
2022-12-05T09:14:00.908Z,10.40
2022-12-05T09:16:38.188Z,8.53
2022-12-05T09:19:16.999Z,7.53
2022-12-05T09:21:45.224Z,11.23
2022-12-05T09:24:13.559Z,9.47
2022-12-05T09:26:43.452Z,8.57
2022-12-05T09:29:16.619Z,9.70
2022-12-05T09:31:46.598Z,9.30
2022-12-05T09:34:15.197Z,13.37
2022-12-05T09:36:43.119Z,14.17
2022-12-05T09:39:11.181Z,11.07
2022-12-05T09:42:05.705Z,10.13
2022-12-05T09:45:18.390Z,10.40
2022-12-05T09:47:54.071Z,11.47
2022-12-05T09:50:30.705Z,9.00
2022-12-05T09:53:16.632Z,10.53
2022-12-05T09:56:01.178Z,11.40
2022-12-05T09:58:42.832Z,10.20
2022-12-05T10:01:30.878Z,11.23
2022-12-05T10:05:00.367Z,8.90
2022-12-05T10:08:15.809Z,11.00
2022-12-05T10:11:15.729Z,10.03
2022-12-05T10:14:10.003Z,10.70
2022-12-05T10:16:53.879Z,11.10
2022-12-05T10:19:41.029Z,13.77
2022-12-05T10:22:20.691Z,11.80
2022-12-05T10:24:55.161Z,11.33
2022-12-05T10:27:39.525Z,11.10
2022-12-05T10:30:17.228Z,11.93
2022-12-05T10:33:01.020Z,14.30
2022-12-05T10:35:37.255Z,22.50
2022-12-05T10:38:09.883Z,12.60
2022-12-05T10:40:43.487Z,13.93
2022-12-05T10:43:16.916Z,10.97
2022-12-05T10:45:48.332Z,12.53
2022-12-05T10:48:19.655Z,17.97
2022-12-05T10:50:51.038Z,12.47
2022-12-05T10:53:23.914Z,13.00
2022-12-05T10:56:28.146Z,27.33
2022-12-05T10:58:38.419Z,13.30
2022-12-05T11:01:10.844Z,13.23
2022-12-05T11:03:40.760Z,14.93
2022-12-05T11:06:24.452Z,16.67
2022-12-05T11:09:05.886Z,16.53
2022-12-05T11:11:34.309Z,16.70
2022-12-05T11:14:08.154Z,13.60
2022-12-05T11:16:38.588Z,14.20
2022-12-05T11:19:31.729Z,15.77
2022-12-05T11:21:59.519Z,12.33
2022-12-05T11:24:33.390Z,15.83
2022-12-05T11:27:16.730Z,18.90
2022-12-05T11:29:54.304Z,16.47
2022-12-05T11:32:25.685Z,17.43
2022-12-05T11:35:03.654Z,17.20
2022-12-05T11:37:54.460Z,15.67
2022-12-05T11:41:07.637Z,16.17
2022-12-05T11:44:09.667Z,15.00
2022-12-05T11:47:30.970Z,17.20
2022-12-05T11:50:22.008Z,12.07
2022-12-05T11:53:29.990Z,15.17
2022-12-05T11:56:52.405Z,13.70
2022-12-05T11:59:45.101Z,11.80
2022-12-05T12:02:30.092Z,13.07
2022-12-05T12:05:34.465Z,11.60
2022-12-05T12:08:23.560Z,13.13
2022-12-05T12:11:28.373Z,14.07
2022-12-05T12:14:20.719Z,12.90
2022-12-05T12:17:06.386Z,12.83
2022-12-05T12:20:10.976Z,13.50
2022-12-05T12:22:59.835Z,13.73
2022-12-05T12:25:50.801Z,11.40
2022-12-05T12:28:40.105Z,14.93
2022-12-05T12:31:12.979Z,12.70
2022-12-05T12:34:04.194Z,11.53
2022-12-05T12:36:42.565Z,12.80
2022-12-05T12:39:28.436Z,13.30
2022-12-05T12:42:13.379Z,14.43
2022-12-05T12:45:08.114Z,14.10
2022-12-05T12:48:13.382Z,14.00
2022-12-05T12:50:44.444Z,14.67
2022-12-05T12:53:20.370Z,13.30
2022-12-05T12:56:15.470Z,13.60
2022-12-05T12:59:14.175Z,11.77
2022-12-05T13:02:27.368Z,12.73
2022-12-05T13:05:08.803Z,14.67
2022-12-05T13:07:47.048Z,14.83
2022-12-05T13:10:34.876Z,15.03
2022-12-05T13:13:04.331Z,15.53
2022-12-05T13:15:53.695Z,13.70
2022-12-05T13:18:24.543Z,16.53
2022-12-05T13:20:58.457Z,17.13
2022-12-05T13:23:30.077Z,14.87
2022-12-05T13:26:00.070Z,15.77
2022-12-05T13:28:34.372Z,18.23
2022-12-05T13:31:02.794Z,18.13
2022-12-05T13:33:50.489Z,15.60
2022-12-05T13:36:43.145Z,16.20
2022-12-05T13:39:41.265Z,15.10
2022-12-05T13:42:24.474Z,16.40
2022-12-05T13:44:55.677Z,14.80
2022-12-05T13:47:33.813Z,14.80
2022-12-05T13:50:07.286Z,14.80
2022-12-05T13:52:53.566Z,16.37
2022-12-05T13:55:23.071Z,17.77
2022-12-05T13:57:58.471Z,19.63
2022-12-05T14:00:43.684Z,18.63
2022-12-05T14:03:34.544Z,15.90
2022-12-05T14:06:01.634Z,15.10
2022-12-05T14:08:31.662Z,15.40
2022-12-05T14:10:58.479Z,16.40
2022-12-05T14:13:26.868Z,17.53
2022-12-05T14:15:55.142Z,18.00
2022-12-05T14:18:46.639Z,20.83
2022-12-05T14:21:39.612Z,17.70
2022-12-05T14:24:38.680Z,21.23
2022-12-05T14:27:47.802Z,17.50
2022-12-05T14:30:37.090Z,15.07
2022-12-05T14:33:04.183Z,18.83
2022-12-05T14:35:51.936Z,20.00
2022-12-05T14:38:33.799Z,20.03
2022-12-05T14:41:26.515Z,19.30
2022-12-05T14:43:55.997Z,18.10
2022-12-05T14:46:30.276Z,18.67
2022-12-05T14:48:57.864Z,17.43
2022-12-05T14:51:46.370Z,27.60
2022-12-05T14:54:18.460Z,30.53
2022-12-05T14:57:12.715Z,20.50
2022-12-05T14:59:52.233Z,43.47
2022-12-05T15:02:31.330Z,27.17
2022-12-05T15:05:27.721Z,18.67
2022-12-05T15:07:56.442Z,19.97
2022-12-05T15:10:36.841Z,17.43
2022-12-05T15:13:11.913Z,16.07
2022-12-05T15:15:50.414Z,19.00
2022-12-05T15:18:40.580Z,20.20
2022-12-05T15:21:34.060Z,17.87
2022-12-05T15:24:13.554Z,21.60
2022-12-05T15:26:56.528Z,18.10
2022-12-05T15:29:27.081Z,19.50
2022-12-05T15:32:06.269Z,25.33
2022-12-05T15:35:05.173Z,53.43
2022-12-05T15:37:55.022Z,27.90
2022-12-05T15:40:26.132Z,24.43
2022-12-05T15:42:56.687Z,21.10
2022-12-05T15:45:30.191Z,22.10
2022-12-05T15:48:12.883Z,19.47
2022-12-05T15:50:43.912Z,17.63
2022-12-05T15:53:19.645Z,19.53
2022-12-05T15:55:56.553Z,23.80
2022-12-05T15:58:32.787Z,19.83
2022-12-05T16:01:14.718Z,18.47
2022-12-05T16:03:52.828Z,19.67
2022-12-05T16:06:42.466Z,22.97
2022-12-05T16:09:19.203Z,19.90
2022-12-05T16:11:56.822Z,19.80
2022-12-05T16:14:58.373Z,23.33
2022-12-05T16:17:18.434Z,19.57
2022-12-05T16:19:45.892Z,19.00
2022-12-05T16:22:12.884Z,17.20
2022-12-05T16:24:50.566Z,16.33
2022-12-05T16:27:36.064Z,18.30
2022-12-05T16:30:16.460Z,19.47
2022-12-05T16:32:45.358Z,22.80
2022-12-05T16:35:27.664Z,19.17
2022-12-05T16:38:17.298Z,27.73
2022-12-05T16:40:50.035Z,20.63
2022-12-05T16:43:40.491Z,18.90
2022-12-05T16:46:13.267Z,17.73
2022-12-05T16:48:47.428Z,14.87
2022-12-05T16:51:17.336Z,18.10
2022-12-05T16:53:50.827Z,21.43
2022-12-05T16:56:24.436Z,21.00
2022-12-05T16:58:51.665Z,20.27
2022-12-05T17:01:22.274Z,20.07
2022-12-05T17:03:49.663Z,19.10
2022-12-05T17:06:18.352Z,22.40
2022-12-05T17:08:45.247Z,23.30
2022-12-05T17:11:27.519Z,20.70
2022-12-05T17:13:56.515Z,18.43
2022-12-05T17:16:24.801Z,19.30
2022-12-05T17:18:52.073Z,18.80
2022-12-05T17:21:26.428Z,22.63
2022-12-05T17:23:53.773Z,22.20
2022-12-05T17:26:22.429Z,24.60
2022-12-05T17:28:49.911Z,19.90
2022-12-05T17:31:21.750Z,18.60
2022-12-05T17:33:50.229Z,18.27
2022-12-05T17:36:17.602Z,20.80
2022-12-05T17:38:45.707Z,16.97
2022-12-05T17:41:21.896Z,19.90
2022-12-05T17:43:51.225Z,21.10
2022-12-05T17:46:21.878Z,20.37
2022-12-05T17:48:50.870Z,22.23
2022-12-05T17:51:19.462Z,19.93
2022-12-05T17:53:47.435Z,19.40
2022-12-05T17:56:15.151Z,18.70
2022-12-05T17:58:42.256Z,18.77
2022-12-05T18:01:18.073Z,20.20
2022-12-05T18:03:45.662Z,18.20
2022-12-05T18:06:12.846Z,18.23
2022-12-05T18:08:41.967Z,22.40
2022-12-05T18:11:08.918Z,20.90
2022-12-05T18:13:36.360Z,21.47
2022-12-05T18:16:04.281Z,21.27
2022-12-05T18:18:31.472Z,25.73
2022-12-05T18:21:11.154Z,22.30
2022-12-05T18:23:39.461Z,22.37
2022-12-05T18:26:09.110Z,27.50
2022-12-05T18:28:38.581Z,20.83
2022-12-05T18:31:15.024Z,17.67
2022-12-05T18:33:44.311Z,22.37
2022-12-05T18:36:19.018Z,22.40
2022-12-05T18:38:57.848Z,26.43
2022-12-05T18:41:27.284Z,21.50
2022-12-05T18:43:54.295Z,25.57
2022-12-05T18:46:21.376Z,25.53
2022-12-05T18:48:48.930Z,23.43
2022-12-05T18:51:20.575Z,22.80
2022-12-05T18:53:53.647Z,25.27
2022-12-05T18:56:28.051Z,25.90
2022-12-05T18:59:07.552Z,25.40
2022-12-05T19:01:37.653Z,24.90
2022-12-05T19:04:07.646Z,27.53
2022-12-05T19:06:36.826Z,22.87
2022-12-05T19:09:11.605Z,26.03
2022-12-05T19:11:45.726Z,25.80
2022-12-05T19:14:15.814Z,26.00
2022-12-05T19:16:42.800Z,27.80
2022-12-05T19:19:13.963Z,22.33
2022-12-05T19:21:41.410Z,23.27
2022-12-05T19:24:11.585Z,23.03
2022-12-05T19:26:39.118Z,24.07
2022-12-05T19:29:06.482Z,20.40
2022-12-05T19:31:35.953Z,25.03
2022-12-05T19:34:06.184Z,21.90
2022-12-05T19:36:45.066Z,23.47
2022-12-05T19:39:18.251Z,23.67
2022-12-05T19:41:46.487Z,22.10
2022-12-05T19:44:14.629Z,27.10
2022-12-05T19:46:41.963Z,27.27
2022-12-05T19:49:13.647Z,27.37
2022-12-05T19:51:41.964Z,33.73
2022-12-05T19:54:11.501Z,27.63
2022-12-05T19:56:39.081Z,27.80
2022-12-05T19:59:07.235Z,29.00
2022-12-05T20:01:40.318Z,30.60
2022-12-05T20:04:16.286Z,29.80
2022-12-05T20:06:48.923Z,31.57
2022-12-05T20:09:20.582Z,28.60
2022-12-05T20:11:55.248Z,27.80
2022-12-05T20:14:25.425Z,26.33
2022-12-05T20:16:53.925Z,29.13
2022-12-05T20:19:21.867Z,26.60
2022-12-05T20:21:49.109Z,31.53
2022-12-05T20:24:16.380Z,31.20
2022-12-05T20:26:45.055Z,26.87
2022-12-05T20:29:13.134Z,30.03
2022-12-05T20:31:42.608Z,24.57
2022-12-05T20:34:15.266Z,29.23
2022-12-05T20:36:43.176Z,26.27
2022-12-05T20:39:18.493Z,29.87
2022-12-05T20:41:46.364Z,29.87
2022-12-05T20:44:17.828Z,31.80
2022-12-05T20:46:46.128Z,28.40
2022-12-05T20:49:14.267Z,28.00
2022-12-05T20:51:44.427Z,27.03
2022-12-05T20:54:16.713Z,30.77
2022-12-05T20:56:45.517Z,25.17
2022-12-05T20:59:14.384Z,27.33
2022-12-05T21:01:42.813Z,27.30
2022-12-05T21:04:12.435Z,28.00
2022-12-05T21:06:43.043Z,27.53
2022-12-05T21:09:15.544Z,24.23
2022-12-05T21:11:43.451Z,25.03
2022-12-05T21:14:11.263Z,27.07
2022-12-05T21:16:38.214Z,28.23
2022-12-05T21:19:05.221Z,28.93
2022-12-05T21:21:37.041Z,24.17
2022-12-05T21:24:06.205Z,23.53
2022-12-05T21:26:34.613Z,29.20
2022-12-05T21:29:02.971Z,30.77
2022-12-05T21:31:35.953Z,25.10
2022-12-05T21:34:08.921Z,25.00
2022-12-05T21:36:36.830Z,28.67
2022-12-05T21:39:05.802Z,26.63
2022-12-05T21:41:33.267Z,23.63
2022-12-05T21:44:01.199Z,25.83
2022-12-05T21:46:28.351Z,23.63
2022-12-05T21:48:55.535Z,25.83
2022-12-05T21:51:23.421Z,24.40
2022-12-05T21:53:51.510Z,27.47
2022-12-05T21:56:25.463Z,25.50
2022-12-05T21:58:53.037Z,23.73
2022-12-05T22:01:24.067Z,25.77
2022-12-05T22:03:54.827Z,27.37
2022-12-05T22:06:22.028Z,22.30
2022-12-05T22:08:49.010Z,22.70
2022-12-05T22:11:19.993Z,23.47
2022-12-05T22:13:48.739Z,19.83
2022-12-05T22:16:16.682Z,20.37
2022-12-05T22:18:44.143Z,19.13
2022-12-05T22:21:16.543Z,19.37
2022-12-05T22:23:44.384Z,19.93
2022-12-05T22:26:20.980Z,17.80
2022-12-05T22:28:50.877Z,21.30
2022-12-05T22:31:18.440Z,18.60
2022-12-05T22:33:46.481Z,21.40
2022-12-05T22:36:16.780Z,20.77
2022-12-05T22:38:46.953Z,17.63
2022-12-05T22:41:23.956Z,19.10
2022-12-05T22:43:59.916Z,19.70
2022-12-05T22:46:28.658Z,16.70
2022-12-05T22:48:56.607Z,15.70
2022-12-05T22:51:24.087Z,14.80
2022-12-05T22:53:52.298Z,17.30
2022-12-05T22:56:23.715Z,16.57
2022-12-05T22:58:55.432Z,15.10
2022-12-05T23:01:26.577Z,16.60
2022-12-05T23:04:03.257Z,14.60
2022-12-05T23:06:32.945Z,14.60
2022-12-05T23:09:01.170Z,14.00
2022-12-05T23:11:30.740Z,16.40
2022-12-05T23:14:02.284Z,12.73
2022-12-05T23:16:32.427Z,13.80
2022-12-05T23:19:04.432Z,15.87
2022-12-05T23:21:38.740Z,17.30
2022-12-05T23:24:09.861Z,14.43
2022-12-05T23:26:44.251Z,13.80
2022-12-05T23:29:12.678Z,14.00
2022-12-05T23:31:40.388Z,13.70
2022-12-05T23:34:07.667Z,13.43
2022-12-05T23:36:34.889Z,12.43
2022-12-05T23:39:02.446Z,16.27
2022-12-05T23:41:29.733Z,14.73
2022-12-05T23:43:59.764Z,15.43
2022-12-05T23:46:28.393Z,15.50
2022-12-05T23:48:57.433Z,16.23
2022-12-05T23:51:28.171Z,14.20
2022-12-05T23:54:01.639Z,14.03
2022-12-05T23:56:33.611Z,16.93
2022-12-05T23:59:03.815Z,16.03
